Terminal Aerodrome Forecast
Issued by NWS

Current Version | Previous Version | Graphics & Text | Print | Product List | Glossary On
Versions: 1 2 3 4 5 6 7 8 9 10 11 12 13 14 15 16 17 18 19 20 21 22
000
FTUS41 KILN 231120
TAFLUK
TAF
KLUK 231120Z 2312/2412 00000KT 4SM BR SCT002 BKN120
     FM231400 21004KT P6SM BKN100
     FM240000 VRB03KT P6SM FEW100
     FM240900 16004KT P6SM SKC=

USA.gov is the U.S. government's official web portal to all federal, state and local government web resources and services.